sensor_id;sensor_type;location;lat;lon;timestamp;P1;durP1;ratioP1;P2;durP2;ratioP2
3309;SDS011;1667;53.238;10.394;2024-02-14T00:02:39;2.53;;;1.30;;
3309;SDS011;1667;53.238;10.394;2024-02-14T00:07:38;1.43;;;1.33;;
3309;SDS011;1667;53.238;10.394;2024-02-14T00:12:37;5.20;;;1.87;;
3309;SDS011;1667;53.238;10.394;2024-02-14T00:17:36;1.87;;;1.50;;
3309;SDS011;1667;53.238;10.394;2024-02-14T00:22:37;1.70;;;1.60;;
3309;SDS011;1667;53.238;10.394;2024-02-14T00:27:36;1.33;;;1.23;;
3309;SDS011;1667;53.238;10.394;2024-02-14T00:32:35;2.70;;;1.53;;
3309;SDS011;1667;53.238;10.394;2024-02-14T00:37:34;6.60;;;1.73;;
3309;SDS011;1667;53.238;10.394;2024-02-14T00:42:35;2.93;;;1.33;;
3309;SDS011;1667;53.238;10.394;2024-02-14T00:47:34;2.90;;;1.17;;
3309;SDS011;1667;53.238;10.394;2024-02-14T00:52:33;1.77;;;1.67;;
3309;SDS011;1667;53.238;10.394;2024-02-14T00:57:32;1.53;;;1.40;;
3309;SDS011;1667;53.238;10.394;2024-02-14T01:02:32;3.20;;;1.93;;
3309;SDS011;1667;53.238;10.394;2024-02-14T01:07:31;1.87;;;1.77;;
3309;SDS011;1667;53.238;10.394;2024-02-14T01:12:30;1.90;;;1.70;;
3309;SDS011;1667;53.238;10.394;2024-02-14T01:17:29;3.40;;;1.37;;
3309;SDS011;1667;53.238;10.394;2024-02-14T01:22:29;2.50;;;1.63;;
3309;SDS011;1667;53.238;10.394;2024-02-14T01:27:28;1.30;;;1.20;;
3309;SDS011;1667;53.238;10.394;2024-02-14T01:32:27;1.60;;;1.50;;
3309;SDS011;1667;53.238;10.394;2024-02-14T01:37:27;4.40;;;1.87;;
3309;SDS011;1667;53.238;10.394;2024-02-14T01:42:27;1.90;;;1.70;;
3309;SDS011;1667;53.238;10.394;2024-02-14T01:47:26;1.63;;;1.53;;
3309;SDS011;1667;53.238;10.394;2024-02-14T01:52:26;3.80;;;1.77;;
3309;SDS011;1667;53.238;10.394;2024-02-14T01:57:25;4.73;;;2.20;;
3309;SDS011;1667;53.238;10.394;2024-02-14T02:02:25;3.10;;;2.07;;
3309;SDS011;1667;53.238;10.394;2024-02-14T02:07:25;1.87;;;1.77;;
3309;SDS011;1667;53.238;10.394;2024-02-14T02:12:24;1.93;;;1.83;;
3309;SDS011;1667;53.238;10.394;2024-02-14T02:17:23;2.10;;;1.90;;
3309;SDS011;1667;53.238;10.394;2024-02-14T02:22:24;8.23;;;2.13;;
3309;SDS011;1667;53.238;10.394;2024-02-14T02:27:24;2.03;;;1.80;;
3309;SDS011;1667;53.238;10.394;2024-02-14T02:32:24;1.37;;;1.27;;
3309;SDS011;1667;53.238;10.394;2024-02-14T02:37:23;2.87;;;2.27;;
3309;SDS011;1667;53.238;10.394;2024-02-14T02:42:22;2.10;;;1.90;;
3309;SDS011;1667;53.238;10.394;2024-02-14T02:47:22;1.93;;;1.67;;
3309;SDS011;1667;53.238;10.394;2024-02-14T02:52:21;2.27;;;1.90;;
3309;SDS011;1667;53.238;10.394;2024-02-14T02:57:20;2.10;;;1.73;;
3309;SDS011;1667;53.238;10.394;2024-02-14T03:02:20;1.40;;;1.30;;
3309;SDS011;1667;53.238;10.394;2024-02-14T03:07:20;1.83;;;1.40;;
3309;SDS011;1667;53.238;10.394;2024-02-14T03:12:21;2.27;;;2.07;;
3309;SDS011;1667;53.238;10.394;2024-02-14T03:17:21;1.97;;;1.70;;
3309;SDS011;1667;53.238;10.394;2024-02-14T03:22:20;2.00;;;1.90;;
3309;SDS011;1667;53.238;10.394;2024-02-14T03:34:08;1.30;;;1.20;;
3309;SDS011;1667;53.238;10.394;2024-02-14T03:39:08;2.83;;;1.87;;
3309;SDS011;1667;53.238;10.394;2024-02-14T03:44:07;4.07;;;2.63;;
3309;SDS011;1667;53.238;10.394;2024-02-14T03:49:06;2.27;;;1.43;;
3309;SDS011;1667;53.238;10.394;2024-02-14T03:54:07;1.90;;;1.77;;
3309;SDS011;1667;53.238;10.394;2024-02-14T03:59:06;4.30;;;1.80;;
3309;SDS011;1667;53.238;10.394;2024-02-14T04:04:05;2.10;;;1.90;;
3309;SDS011;1667;53.238;10.394;2024-02-14T04:09:06;1.87;;;1.77;;
3309;SDS011;1667;53.238;10.394;2024-02-14T04:14:05;2.30;;;1.80;;
3309;SDS011;1667;53.238;10.394;2024-02-14T04:19:04;1.70;;;1.60;;
3309;SDS011;1667;53.238;10.394;2024-02-14T04:24:04;2.87;;;1.80;;
3309;SDS011;1667;53.238;10.394;2024-02-14T04:29:05;2.20;;;2.00;;
3309;SDS011;1667;53.238;10.394;2024-02-14T04:34:03;3.10;;;2.20;;
3309;SDS011;1667;53.238;10.394;2024-02-14T04:39:06;4.07;;;1.90;;
3309;SDS011;1667;53.238;10.394;2024-02-14T04:44:06;2.43;;;1.80;;
3309;SDS011;1667;53.238;10.394;2024-02-14T04:49:05;1.93;;;1.83;;
3309;SDS011;1667;53.238;10.394;2024-02-14T04:54:06;3.03;;;2.40;;
3309;SDS011;1667;53.238;10.394;2024-02-14T04:59:06;4.07;;;1.97;;
3309;SDS011;1667;53.238;10.394;2024-02-14T05:04:05;2.27;;;1.80;;
3309;SDS011;1667;53.238;10.394;2024-02-14T05:09:06;3.17;;;2.23;;
3309;SDS011;1667;53.238;10.394;2024-02-14T05:14:07;2.10;;;1.90;;
3309;SDS011;1667;53.238;10.394;2024-02-14T05:19:06;3.00;;;2.73;;
3309;SDS011;1667;53.238;10.394;2024-02-14T05:24:06;4.97;;;2.63;;
3309;SDS011;1667;53.238;10.394;2024-02-14T05:29:05;4.40;;;2.50;;
3309;SDS011;1667;53.238;10.394;2024-02-14T05:34:03;2.90;;;1.63;;
3309;SDS011;1667;53.238;10.394;2024-02-14T05:39:03;4.70;;;2.60;;
3309;SDS011;1667;53.238;10.394;2024-02-14T05:44:04;2.50;;;1.83;;
3309;SDS011;1667;53.238;10.394;2024-02-14T05:49:04;2.87;;;2.40;;
3309;SDS011;1667;53.238;10.394;2024-02-14T05:54:03;3.70;;;2.80;;
3309;SDS011;1667;53.238;10.394;2024-02-14T05:59:02;3.37;;;2.17;;
3309;SDS011;1667;53.238;10.394;2024-02-14T06:04:02;2.20;;;1.90;;
3309;SDS011;1667;53.238;10.394;2024-02-14T06:09:02;3.20;;;2.00;;
3309;SDS011;1667;53.238;10.394;2024-02-14T06:14:07;6.30;;;3.33;;
3309;SDS011;1667;53.238;10.394;2024-02-14T06:19:06;2.37;;;2.17;;
3309;SDS011;1667;53.238;10.394;2024-02-14T06:24:06;3.30;;;2.13;;
3309;SDS011;1667;53.238;10.394;2024-02-14T06:29:09;6.77;;;4.57;;
3309;SDS011;1667;53.238;10.394;2024-02-14T06:34:08;3.60;;;2.43;;
3309;SDS011;1667;53.238;10.394;2024-02-14T06:39:08;3.43;;;2.57;;
3309;SDS011;1667;53.238;10.394;2024-02-14T06:44:08;6.63;;;3.60;;
3309;SDS011;1667;53.238;10.394;2024-02-14T06:49:07;3.80;;;2.90;;
3309;SDS011;1667;53.238;10.394;2024-02-14T06:54:06;2.33;;;2.13;;
3309;SDS011;1667;53.238;10.394;2024-02-14T06:59:05;2.70;;;2.20;;
3309;SDS011;1667;53.238;10.394;2024-02-14T07:04:06;2.30;;;2.10;;
3309;SDS011;1667;53.238;10.394;2024-02-14T07:09:04;5.87;;;3.40;;
3309;SDS011;1667;53.238;10.394;2024-02-14T07:14:06;4.43;;;3.37;;
3309;SDS011;1667;53.238;10.394;2024-02-14T07:19:04;5.00;;;2.60;;
3309;SDS011;1667;53.238;10.394;2024-02-14T07:24:05;4.83;;;2.93;;
3309;SDS011;1667;53.238;10.394;2024-02-14T07:29:05;5.53;;;3.27;;
3309;SDS011;1667;53.238;10.394;2024-02-14T07:34:04;5.27;;;3.83;;
3309;SDS011;1667;53.238;10.394;2024-02-14T07:39:06;4.10;;;3.40;;
3309;SDS011;1667;53.238;10.394;2024-02-14T07:50:54;3.20;;;2.90;;
3309;SDS011;1667;53.238;10.394;2024-02-14T07:55:55;2.40;;;1.90;;
3309;SDS011;1667;53.238;10.394;2024-02-14T08:00:53;2.73;;;2.10;;
3309;SDS011;1667;53.238;10.394;2024-02-14T08:05:52;2.23;;;1.93;;
3309;SDS011;1667;53.238;10.394;2024-02-14T08:10:51;2.30;;;2.03;;
3309;SDS011;1667;53.238;10.394;2024-02-14T08:15:51;5.40;;;2.77;;
3309;SDS011;1667;53.238;10.394;2024-02-14T08:20:50;2.87;;;2.60;;
3309;SDS011;1667;53.238;10.394;2024-02-14T08:25:49;2.90;;;2.20;;
3309;SDS011;1667;53.238;10.394;2024-02-14T08:30:48;2.10;;;1.90;;
3309;SDS011;1667;53.238;10.394;2024-02-14T08:35:48;2.97;;;2.70;;
3309;SDS011;1667;53.238;10.394;2024-02-14T08:40:48;1.37;;;1.27;;
3309;SDS011;1667;53.238;10.394;2024-02-14T08:45:46;2.23;;;2.07;;
3309;SDS011;1667;53.238;10.394;2024-02-14T08:50:46;1.90;;;1.70;;
3309;SDS011;1667;53.238;10.394;2024-02-14T08:55:46;3.23;;;1.90;;
3309;SDS011;1667;53.238;10.394;2024-02-14T09:00:44;1.80;;;1.70;;
3309;SDS011;1667;53.238;10.394;2024-02-14T09:05:45;1.70;;;1.37;;
3309;SDS011;1667;53.238;10.394;2024-02-14T09:10:44;2.23;;;1.47;;
3309;SDS011;1667;53.238;10.394;2024-02-14T09:15:45;2.00;;;1.80;;
3309;SDS011;1667;53.238;10.394;2024-02-14T09:20:45;2.93;;;2.20;;
3309;SDS011;1667;53.238;10.394;2024-02-14T09:25:45;1.43;;;1.10;;
3309;SDS011;1667;53.238;10.394;2024-02-14T09:30:45;1.60;;;1.50;;
3309;SDS011;1667;53.238;10.394;2024-02-14T09:35:45;1.50;;;1.40;;
3309;SDS011;1667;53.238;10.394;2024-02-14T09:40:46;1.23;;;1.13;;
3309;SDS011;1667;53.238;10.394;2024-02-14T09:45:47;1.53;;;1.43;;
3309;SDS011;1667;53.238;10.394;2024-02-14T09:50:49;0.90;;;0.90;;
3309;SDS011;1667;53.238;10.394;2024-02-14T09:55:52;0.93;;;0.90;;
3309;SDS011;1667;53.238;10.394;2024-02-14T10:00:53;0.90;;;0.90;;
3309;SDS011;1667;53.238;10.394;2024-02-14T10:05:57;3.90;;;1.63;;
3309;SDS011;1667;53.238;10.394;2024-02-14T10:10:58;2.50;;;1.80;;
3309;SDS011;1667;53.238;10.394;2024-02-14T10:15:57;1.10;;;1.00;;
3309;SDS011;1667;53.238;10.394;2024-02-14T10:20:57;1.43;;;1.30;;
3309;SDS011;1667;53.238;10.394;2024-02-14T10:25:57;1.23;;;1.07;;
3309;SDS011;1667;53.238;10.394;2024-02-14T10:30:56;1.70;;;1.20;;
3309;SDS011;1667;53.238;10.394;2024-02-14T10:35:56;1.23;;;1.13;;
3309;SDS011;1667;53.238;10.394;2024-02-14T10:41:00;1.37;;;1.27;;
3309;SDS011;1667;53.238;10.394;2024-02-14T10:46:04;1.90;;;1.80;;
3309;SDS011;1667;53.238;10.394;2024-02-14T10:51:06;1.40;;;1.30;;
3309;SDS011;1667;53.238;10.394;2024-02-14T10:56:09;1.83;;;1.10;;
3309;SDS011;1667;53.238;10.394;2024-02-14T11:01:08;1.20;;;1.10;;
3309;SDS011;1667;53.238;10.394;2024-02-14T11:06:07;1.00;;;1.00;;
3309;SDS011;1667;53.238;10.394;2024-02-14T11:11:06;1.10;;;1.10;;
3309;SDS011;1667;53.238;10.394;2024-02-14T11:16:10;1.10;;;1.10;;
3309;SDS011;1667;53.238;10.394;2024-02-14T11:21:15;1.50;;;1.40;;
3309;SDS011;1667;53.238;10.394;2024-02-14T11:26:16;1.83;;;1.73;;
3309;SDS011;1667;53.238;10.394;2024-02-14T11:31:16;1.30;;;1.30;;
3309;SDS011;1667;53.238;10.394;2024-02-14T11:36:15;1.50;;;1.40;;
3309;SDS011;1667;53.238;10.394;2024-02-14T11:41:17;1.43;;;1.33;;
3309;SDS011;1667;53.238;10.394;2024-02-14T11:46:16;1.20;;;1.17;;
3309;SDS011;1667;53.238;10.394;2024-02-14T11:51:15;1.37;;;1.27;;
3309;SDS011;1667;53.238;10.394;2024-02-14T11:56:15;1.70;;;1.60;;
3309;SDS011;1667;53.238;10.394;2024-02-14T12:01:16;1.50;;;1.40;;
3309;SDS011;1667;53.238;10.394;2024-02-14T12:06:17;1.40;;;1.30;;
3309;SDS011;1667;53.238;10.394;2024-02-14T12:11:18;1.53;;;1.43;;
3309;SDS011;1667;53.238;10.394;2024-02-14T12:16:19;4.37;;;3.10;;
3309;SDS011;1667;53.238;10.394;2024-02-14T12:21:19;3.10;;;2.50;;
3309;SDS011;1667;53.238;10.394;2024-02-14T12:26:19;3.40;;;2.00;;
3309;SDS011;1667;53.238;10.394;2024-02-14T12:31:22;3.20;;;2.77;;
3309;SDS011;1667;53.238;10.394;2024-02-14T12:36:21;2.63;;;2.20;;
3309;SDS011;1667;53.238;10.394;2024-02-14T12:41:40;3.03;;;2.73;;
3309;SDS011;1667;53.238;10.394;2024-02-14T12:46:39;4.30;;;2.93;;
3309;SDS011;1667;53.238;10.394;2024-02-14T12:51:38;3.47;;;3.17;;
3309;SDS011;1667;53.238;10.394;2024-02-14T12:56:37;3.10;;;2.47;;
3309;SDS011;1667;53.238;10.394;2024-02-14T13:01:38;5.73;;;3.30;;
3309;SDS011;1667;53.238;10.394;2024-02-14T13:06:37;3.23;;;2.70;;
3309;SDS011;1667;53.238;10.394;2024-02-14T13:11:36;3.40;;;2.70;;
3309;SDS011;1667;53.238;10.394;2024-02-14T13:16:35;4.17;;;3.50;;
3309;SDS011;1667;53.238;10.394;2024-02-14T13:21:36;3.57;;;2.60;;
3309;SDS011;1667;53.238;10.394;2024-02-14T13:26:36;3.43;;;3.13;;
3309;SDS011;1667;53.238;10.394;2024-02-14T13:31:35;2.50;;;2.30;;
3309;SDS011;1667;53.238;10.394;2024-02-14T13:36:35;2.47;;;2.27;;
3309;SDS011;1667;53.238;10.394;2024-02-14T13:41:34;3.50;;;2.50;;
3309;SDS011;1667;53.238;10.394;2024-02-14T13:46:35;3.00;;;2.80;;
3309;SDS011;1667;53.238;10.394;2024-02-14T13:51:35;2.77;;;2.57;;
3309;SDS011;1667;53.238;10.394;2024-02-14T13:56:34;3.20;;;2.77;;
3309;SDS011;1667;53.238;10.394;2024-02-14T14:01:33;2.93;;;2.63;;
3309;SDS011;1667;53.238;10.394;2024-02-14T14:06:32;3.90;;;3.40;;
3309;SDS011;1667;53.238;10.394;2024-02-14T14:11:33;2.00;;;1.80;;
3309;SDS011;1667;53.238;10.394;2024-02-14T14:16:32;3.53;;;3.23;;
3309;SDS011;1667;53.238;10.394;2024-02-14T14:21:32;2.87;;;2.60;;
3309;SDS011;1667;53.238;10.394;2024-02-14T14:26:34;3.47;;;3.17;;
3309;SDS011;1667;53.238;10.394;2024-02-14T14:31:35;3.10;;;2.73;;
3309;SDS011;1667;53.238;10.394;2024-02-14T14:36:33;3.33;;;3.03;;
3309;SDS011;1667;53.238;10.394;2024-02-14T14:41:36;3.40;;;3.10;;
3309;SDS011;1667;53.238;10.394;2024-02-14T14:46:34;3.27;;;2.83;;
3309;SDS011;1667;53.238;10.394;2024-02-14T14:51:38;2.50;;;2.30;;
3309;SDS011;1667;53.238;10.394;2024-02-14T14:56:38;3.83;;;3.43;;
3309;SDS011;1667;53.238;10.394;2024-02-14T15:01:37;5.20;;;3.10;;
3309;SDS011;1667;53.238;10.394;2024-02-14T15:06:36;5.07;;;3.97;;
3309;SDS011;1667;53.238;10.394;2024-02-14T15:11:35;4.97;;;3.40;;
3309;SDS011;1667;53.238;10.394;2024-02-14T15:16:36;4.17;;;3.17;;
3309;SDS011;1667;53.238;10.394;2024-02-14T15:21:35;3.93;;;3.47;;
3309;SDS011;1667;53.238;10.394;2024-02-14T15:26:34;4.40;;;3.10;;
3309;SDS011;1667;53.238;10.394;2024-02-14T15:31:48;3.70;;;3.40;;
3309;SDS011;1667;53.238;10.394;2024-02-14T15:37:04;3.33;;;3.03;;
3309;SDS011;1667;53.238;10.394;2024-02-14T15:42:03;5.40;;;4.50;;
3309;SDS011;1667;53.238;10.394;2024-02-14T15:47:04;5.53;;;3.70;;
3309;SDS011;1667;53.238;10.394;2024-02-14T15:52:05;3.80;;;3.43;;
3309;SDS011;1667;53.238;10.394;2024-02-14T15:57:04;4.47;;;4.07;;
3309;SDS011;1667;53.238;10.394;2024-02-14T16:02:04;5.50;;;4.53;;
3309;SDS011;1667;53.238;10.394;2024-02-14T16:07:04;6.03;;;4.90;;
3309;SDS011;1667;53.238;10.394;2024-02-14T16:12:03;5.27;;;4.03;;
3309;SDS011;1667;53.238;10.394;2024-02-14T16:17:05;5.23;;;3.60;;
3309;SDS011;1667;53.238;10.394;2024-02-14T16:22:04;5.33;;;4.30;;
3309;SDS011;1667;53.238;10.394;2024-02-14T16:27:12;5.40;;;4.03;;
3309;SDS011;1667;53.238;10.394;2024-02-14T16:32:14;6.80;;;4.70;;
3309;SDS011;1667;53.238;10.394;2024-02-14T16:37:13;6.57;;;4.67;;
3309;SDS011;1667;53.238;10.394;2024-02-14T16:42:15;7.47;;;5.43;;
3309;SDS011;1667;53.238;10.394;2024-02-14T16:47:16;5.90;;;4.70;;
3309;SDS011;1667;53.238;10.394;2024-02-14T16:52:14;11.93;;;5.50;;
3309;SDS011;1667;53.238;10.394;2024-02-14T16:57:14;7.57;;;5.90;;
3309;SDS011;1667;53.238;10.394;2024-02-14T17:02:17;8.30;;;6.70;;
3309;SDS011;1667;53.238;10.394;2024-02-14T17:13:39;12.10;;;5.90;;
3309;SDS011;1667;53.238;10.394;2024-02-14T17:18:39;8.67;;;6.40;;
3309;SDS011;1667;53.238;10.394;2024-02-14T17:23:38;8.10;;;6.10;;
3309;SDS011;1667;53.238;10.394;2024-02-14T17:28:38;8.87;;;6.13;;
3309;SDS011;1667;53.238;10.394;2024-02-14T17:33:37;9.57;;;6.30;;
3309;SDS011;1667;53.238;10.394;2024-02-14T17:38:38;10.23;;;6.50;;
3309;SDS011;1667;53.238;10.394;2024-02-14T17:43:36;8.60;;;5.40;;
3309;SDS011;1667;53.238;10.394;2024-02-14T17:48:35;8.80;;;6.27;;
3309;SDS011;1667;53.238;10.394;2024-02-14T17:53:34;9.57;;;6.50;;
3309;SDS011;1667;53.238;10.394;2024-02-14T17:58:34;8.20;;;6.00;;
3309;SDS011;1667;53.238;10.394;2024-02-14T18:03:34;8.80;;;6.57;;
3309;SDS011;1667;53.238;10.394;2024-02-14T18:08:33;7.27;;;5.70;;
3309;SDS011;1667;53.238;10.394;2024-02-14T18:13:32;7.40;;;5.77;;
3309;SDS011;1667;53.238;10.394;2024-02-14T18:18:33;9.23;;;7.20;;
3309;SDS011;1667;53.238;10.394;2024-02-14T18:23:33;9.23;;;5.60;;
3309;SDS011;1667;53.238;10.394;2024-02-14T18:28:32;7.17;;;4.87;;
3309;SDS011;1667;53.238;10.394;2024-02-14T18:33:32;8.13;;;4.90;;
3309;SDS011;1667;53.238;10.394;2024-02-14T18:38:32;11.23;;;6.87;;
3309;SDS011;1667;53.238;10.394;2024-02-14T18:43:30;8.87;;;6.30;;
3309;SDS011;1667;53.238;10.394;2024-02-14T18:48:30;8.13;;;6.00;;
3309;SDS011;1667;53.238;10.394;2024-02-14T18:53:30;5.90;;;5.07;;
3309;SDS011;1667;53.238;10.394;2024-02-14T18:58:29;8.47;;;6.00;;
3309;SDS011;1667;53.238;10.394;2024-02-14T19:03:28;8.20;;;6.40;;
3309;SDS011;1667;53.238;10.394;2024-02-14T19:08:28;7.80;;;5.77;;
3309;SDS011;1667;53.238;10.394;2024-02-14T19:13:28;8.67;;;6.30;;
3309;SDS011;1667;53.238;10.394;2024-02-14T19:18:27;7.70;;;5.60;;
3309;SDS011;1667;53.238;10.394;2024-02-14T19:23:26;11.00;;;5.57;;
3309;SDS011;1667;53.238;10.394;2024-02-14T19:28:27;8.10;;;4.80;;
3309;SDS011;1667;53.238;10.394;2024-02-14T19:33:26;7.70;;;5.50;;
3309;SDS011;1667;53.238;10.394;2024-02-14T19:38:25;6.23;;;4.60;;
3309;SDS011;1667;53.238;10.394;2024-02-14T19:43:24;7.60;;;5.53;;
3309;SDS011;1667;53.238;10.394;2024-02-14T19:48:35;7.70;;;6.07;;
3309;SDS011;1667;53.238;10.394;2024-02-14T19:53:34;7.90;;;4.80;;
3309;SDS011;1667;53.238;10.394;2024-02-14T19:58:35;6.30;;;4.80;;
3309;SDS011;1667;53.238;10.394;2024-02-14T20:03:33;6.60;;;5.17;;
3309;SDS011;1667;53.238;10.394;2024-02-14T20:08:32;6.60;;;5.07;;
3309;SDS011;1667;53.238;10.394;2024-02-14T20:13:31;6.50;;;4.83;;
3309;SDS011;1667;53.238;10.394;2024-02-14T20:18:32;6.83;;;5.40;;
3309;SDS011;1667;53.238;10.394;2024-02-14T20:23:32;7.40;;;5.07;;
3309;SDS011;1667;53.238;10.394;2024-02-14T20:28:31;5.67;;;4.40;;
3309;SDS011;1667;53.238;10.394;2024-02-14T20:33:29;6.67;;;5.00;;
3309;SDS011;1667;53.238;10.394;2024-02-14T20:38:31;6.33;;;3.90;;
3309;SDS011;1667;53.238;10.394;2024-02-14T20:43:30;4.43;;;3.63;;
3309;SDS011;1667;53.238;10.394;2024-02-14T20:48:31;4.07;;;3.67;;
3309;SDS011;1667;53.238;10.394;2024-02-14T20:53:30;4.37;;;3.17;;
3309;SDS011;1667;53.238;10.394;2024-02-14T20:58:30;6.37;;;3.70;;
3309;SDS011;1667;53.238;10.394;2024-02-14T21:03:28;5.00;;;3.93;;
3309;SDS011;1667;53.238;10.394;2024-02-14T21:08:28;3.67;;;3.27;;
3309;SDS011;1667;53.238;10.394;2024-02-14T21:13:27;5.97;;;3.70;;
3309;SDS011;1667;53.238;10.394;2024-02-14T21:18:26;3.27;;;2.77;;
3309;SDS011;1667;53.238;10.394;2024-02-14T21:23:25;3.93;;;3.53;;
3309;SDS011;1667;53.238;10.394;2024-02-14T21:28:25;4.83;;;3.70;;
3309;SDS011;1667;53.238;10.394;2024-02-14T21:33:24;4.13;;;3.20;;
3309;SDS011;1667;53.238;10.394;2024-02-14T21:38:24;5.23;;;3.80;;
3309;SDS011;1667;53.238;10.394;2024-02-14T21:43:23;4.13;;;3.70;;
3309;SDS011;1667;53.238;10.394;2024-02-14T21:48:22;3.80;;;3.13;;
3309;SDS011;1667;53.238;10.394;2024-02-14T21:53:22;3.80;;;2.93;;
3309;SDS011;1667;53.238;10.394;2024-02-14T21:58:21;4.57;;;3.77;;
3309;SDS011;1667;53.238;10.394;2024-02-14T22:03:20;3.57;;;2.73;;
3309;SDS011;1667;53.238;10.394;2024-02-14T22:08:20;4.80;;;3.27;;
3309;SDS011;1667;53.238;10.394;2024-02-14T22:13:20;4.07;;;3.10;;
3309;SDS011;1667;53.238;10.394;2024-02-14T22:18:20;2.83;;;2.33;;
3309;SDS011;1667;53.238;10.394;2024-02-14T22:23:22;3.40;;;2.83;;
3309;SDS011;1667;53.238;10.394;2024-02-14T22:28:23;2.97;;;2.77;;
3309;SDS011;1667;53.238;10.394;2024-02-14T22:33:21;3.20;;;2.90;;
3309;SDS011;1667;53.238;10.394;2024-02-14T22:38:23;3.70;;;3.13;;
3309;SDS011;1667;53.238;10.394;2024-02-14T22:43:22;2.40;;;2.20;;
3309;SDS011;1667;53.238;10.394;2024-02-14T22:48:21;3.07;;;2.77;;
3309;SDS011;1667;53.238;10.394;2024-02-14T22:53:20;2.83;;;2.60;;
3309;SDS011;1667;53.238;10.394;2024-02-14T22:58:21;3.30;;;2.80;;
3309;SDS011;1667;53.238;10.394;2024-02-14T23:03:20;4.00;;;3.10;;
3309;SDS011;1667;53.238;10.394;2024-02-14T23:08:19;4.07;;;3.27;;
3309;SDS011;1667;53.238;10.394;2024-02-14T23:13:18;4.07;;;3.10;;
3309;SDS011;1667;53.238;10.394;2024-02-14T23:18:19;4.60;;;3.87;;
3309;SDS011;1667;53.238;10.394;2024-02-14T23:23:18;3.10;;;2.80;;
3309;SDS011;1667;53.238;10.394;2024-02-14T23:28:17;3.23;;;2.93;;
3309;SDS011;1667;53.238;10.394;2024-02-14T23:33:15;4.37;;;3.30;;
3309;SDS011;1667;53.238;10.394;2024-02-14T23:38:16;4.00;;;3.27;;
3309;SDS011;1667;53.238;10.394;2024-02-14T23:43:15;5.97;;;4.33;;
3309;SDS011;1667;53.238;10.394;2024-02-14T23:48:15;4.80;;;3.67;;
3309;SDS011;1667;53.238;10.394;2024-02-14T23:53:15;6.03;;;4.07;;
3309;SDS011;1667;53.238;10.394;2024-02-14T23:58:14;4.80;;;3.83;;
